Kezdőlap
METAR-TAF:

METAR-TAF

Repülőterek :

Seiyun, Jemen

földrajzi szélesség: 15-58N, földrajzi hosszúság: 048-48E, magasság: 701 m

Jelenlegi meteorológiai megfigyelések

A jelentés 42 perccel ezelõtt készült, 19:00 UTC
Dél-délnyugati szél 6 kt, dél-délkeleti és nyugati között változik
Hőmérséklet 38°C
Páratartalom 21%
Légköri nyomás 1006 hPa
Látótávolság 10 km, vagy több
Szakadozott felhőzet 3500 lábon

METAR: OYSY 151900Z 20006KT 150V260 9999 BKN035 38/12 Q1006

Idő: 22:42 (19:42 UTC)


TAF: hiányzik

Meteorológiai megfigyelések és előrejelzések több, mint 4000 repülőtéren (METAR és TAF jelentéseket).

A térképen piros és sárga pontok jelzik az elérhető meteorológiai állomásokat.

Mozgassa az egeret a pont fölött, hogy megjelenjen az állomás neve.

Azután kattintson az időjárási megfigyelések és előrejelzések megtekintéséhez.

A térkép megváltoztatása: kattintson a fekete keresztel jelölt zöld gombra ráközelítéshez, a vonallal jelölt zöld gombra távolításhoz, vagy a zöld nyilakra a szomszédos térképek eléréséhez.


METAR-TAF: